sensor_id;sensor_type;location;lat;lon;timestamp;pressure;altitude;pressure_sealevel;temperature;humidity
21828;BME280;11076;47.942;11.804;2023-04-24T00:02:32;93494.28;;;8.73;100.00
21828;BME280;11076;47.942;11.804;2023-04-24T00:07:35;93489.59;;;8.69;100.00
21828;BME280;11076;47.942;11.804;2023-04-24T00:12:38;93481.50;;;8.64;100.00
21828;BME280;11076;47.942;11.804;2023-04-24T00:17:40;93472.94;;;8.62;100.00
21828;BME280;11076;47.942;11.804;2023-04-24T00:22:43;93469.69;;;8.60;100.00
21828;BME280;11076;47.942;11.804;2023-04-24T00:27:45;93470.13;;;8.56;100.00
21828;BME280;11076;47.942;11.804;2023-04-24T00:32:47;93467.34;;;8.63;100.00
21828;BME280;11076;47.942;11.804;2023-04-24T00:37:50;93456.59;;;8.58;100.00
21828;BME280;11076;47.942;11.804;2023-04-24T00:42:52;93457.88;;;8.55;100.00
21828;BME280;11076;47.942;11.804;2023-04-24T00:47:55;93459.94;;;8.53;100.00
21828;BME280;11076;47.942;11.804;2023-04-24T00:52:57;93466.53;;;8.51;100.00
21828;BME280;11076;47.942;11.804;2023-04-24T00:58:00;93452.19;;;8.52;100.00
21828;BME280;11076;47.942;11.804;2023-04-24T01:03:04;93450.47;;;8.58;100.00
21828;BME280;11076;47.942;11.804;2023-04-24T01:08:07;93441.41;;;8.59;100.00
21828;BME280;11076;47.942;11.804;2023-04-24T01:13:10;93453.69;;;8.60;100.00
21828;BME280;11076;47.942;11.804;2023-04-24T01:18:13;93457.97;;;8.61;100.00
21828;BME280;11076;47.942;11.804;2023-04-24T01:23:17;93466.31;;;8.52;100.00
21828;BME280;11076;47.942;11.804;2023-04-24T01:28:19;93466.16;;;8.47;100.00
21828;BME280;11076;47.942;11.804;2023-04-24T01:33:22;93465.94;;;8.49;100.00
21828;BME280;11076;47.942;11.804;2023-04-24T01:38:25;93460.72;;;8.42;100.00
21828;BME280;11076;47.942;11.804;2023-04-24T01:43:28;93461.88;;;8.46;100.00
21828;BME280;11076;47.942;11.804;2023-04-24T01:48:33;93460.72;;;8.42;100.00
21828;BME280;11076;47.942;11.804;2023-04-24T01:53:35;93465.25;;;8.42;100.00
21828;BME280;11076;47.942;11.804;2023-04-24T01:58:38;93464.56;;;8.46;100.00
21828;BME280;11076;47.942;11.804;2023-04-24T02:03:40;93467.31;;;8.51;100.00
21828;BME280;11076;47.942;11.804;2023-04-24T02:08:43;93456.22;;;8.54;100.00
21828;BME280;11076;47.942;11.804;2023-04-24T02:13:45;93443.59;;;8.50;100.00
21828;BME280;11076;47.942;11.804;2023-04-24T02:18:48;93445.69;;;8.48;100.00
21828;BME280;11076;47.942;11.804;2023-04-24T02:23:52;93450.06;;;8.42;100.00
21828;BME280;11076;47.942;11.804;2023-04-24T02:28:54;93449.31;;;8.35;100.00
21828;BME280;11076;47.942;11.804;2023-04-24T02:33:56;93447.41;;;8.42;100.00
21828;BME280;11076;47.942;11.804;2023-04-24T02:38:59;93449.31;;;8.35;100.00
21828;BME280;11076;47.942;11.804;2023-04-24T02:44:03;93451.09;;;8.41;100.00
21828;BME280;11076;47.942;11.804;2023-04-24T02:49:05;93451.53;;;8.38;100.00
21828;BME280;11076;47.942;11.804;2023-04-24T02:54:08;93453.03;;;8.34;100.00
21828;BME280;11076;47.942;11.804;2023-04-24T02:59:14;93460.28;;;8.27;100.00
21828;BME280;11076;47.942;11.804;2023-04-24T03:04:16;93448.84;;;8.26;100.00
21828;BME280;11076;47.942;11.804;2023-04-24T03:09:23;93460.75;;;8.24;100.00
21828;BME280;11076;47.942;11.804;2023-04-24T03:14:25;93465.50;;;8.22;100.00
21828;BME280;11076;47.942;11.804;2023-04-24T03:19:28;93456.69;;;8.21;100.00
21828;BME280;11076;47.942;11.804;2023-04-24T03:24:37;93464.44;;;8.23;100.00
21828;BME280;11076;47.942;11.804;2023-04-24T03:29:40;93458.88;;;8.12;100.00
21828;BME280;11076;47.942;11.804;2023-04-24T03:34:43;93457.22;;;8.11;100.00
21828;BME280;11076;47.942;11.804;2023-04-24T03:39:47;93458.88;;;8.12;100.00
21828;BME280;11076;47.942;11.804;2023-04-24T03:44:52;93464.03;;;8.07;100.00
21828;BME280;11076;47.942;11.804;2023-04-24T03:49:58;93462.56;;;8.11;100.00
21828;BME280;11076;47.942;11.804;2023-04-24T03:55:01;93468.56;;;8.07;100.00
21828;BME280;11076;47.942;11.804;2023-04-24T04:00:07;93473.31;;;8.05;100.00
21828;BME280;11076;47.942;11.804;2023-04-24T04:05:15;93469.94;;;8.09;100.00
21828;BME280;11076;47.942;11.804;2023-04-24T04:10:18;93463.03;;;8.08;100.00
21828;BME280;11076;47.942;11.804;2023-04-24T04:15:20;93464.03;;;8.07;100.00
21828;BME280;11076;47.942;11.804;2023-04-24T04:20:24;93472.41;;;8.11;100.00
21828;BME280;11076;47.942;11.804;2023-04-24T04:25:27;93460.66;;;8.30;100.00
21828;BME280;11076;47.942;11.804;2023-04-24T04:30:30;93462.63;;;8.35;100.00
21828;BME280;11076;47.942;11.804;2023-04-24T04:35:38;93458.22;;;8.29;100.00
21828;BME280;11076;47.942;11.804;2023-04-24T04:40:40;93462.19;;;8.38;100.00
21828;BME280;11076;47.942;11.804;2023-04-24T04:45:43;93466.78;;;8.31;100.00
21828;BME280;11076;47.942;11.804;2023-04-24T04:51:05;93466.09;;;8.24;100.00
21828;BME280;11076;47.942;11.804;2023-04-24T04:56:07;93464.28;;;8.36;100.00
21828;BME280;11076;47.942;11.804;2023-04-24T05:01:19;93468.88;;;8.29;100.00
21828;BME280;11076;47.942;11.804;2023-04-24T05:06:24;93469.78;;;8.23;100.00
21828;BME280;11076;47.942;11.804;2023-04-24T05:11:27;93486.56;;;8.23;100.00
21828;BME280;11076;47.942;11.804;2023-04-24T05:16:31;93494.31;;;8.25;100.00
21828;BME280;11076;47.942;11.804;2023-04-24T05:21:34;93501.88;;;8.28;100.00
21828;BME280;11076;47.942;11.804;2023-04-24T05:26:36;93494.59;;;8.35;100.00
21828;BME280;11076;47.942;11.804;2023-04-24T05:31:42;93501.47;;;8.43;100.00
21828;BME280;11076;47.942;11.804;2023-04-24T05:36:44;93492.78;;;8.47;100.00
21828;BME280;11076;47.942;11.804;2023-04-24T05:41:46;93500.75;;;8.66;100.00
21828;BME280;11076;47.942;11.804;2023-04-24T05:46:49;93504.91;;;8.85;100.00
21828;BME280;11076;47.942;11.804;2023-04-24T05:51:52;93500.44;;;8.98;100.00
21828;BME280;11076;47.942;11.804;2023-04-24T05:56:54;93500.34;;;9.16;100.00
21828;BME280;11076;47.942;11.804;2023-04-24T06:02:08;93499.41;;;9.46;100.00
21828;BME280;11076;47.942;11.804;2023-04-24T06:07:11;93501.69;;;9.78;100.00
21828;BME280;11076;47.942;11.804;2023-04-24T06:12:14;93497.88;;;10.02;100.00
21828;BME280;11076;47.942;11.804;2023-04-24T06:17:37;93503.53;;;9.89;100.00
21828;BME280;11076;47.942;11.804;2023-04-24T06:22:40;93500.28;;;9.87;100.00
21828;BME280;11076;47.942;11.804;2023-04-24T06:27:42;93497.72;;;9.68;100.00
21828;BME280;11076;47.942;11.804;2023-04-24T06:32:45;93504.91;;;9.80;100.00
21828;BME280;11076;47.942;11.804;2023-04-24T06:37:47;93498.22;;;10.06;100.00
21828;BME280;11076;47.942;11.804;2023-04-24T06:42:49;93504.13;;;10.20;100.00
21828;BME280;11076;47.942;11.804;2023-04-24T06:47:52;93499.09;;;10.23;100.00
21828;BME280;11076;47.942;11.804;2023-04-24T06:52:54;93502.19;;;10.03;100.00
21828;BME280;11076;47.942;11.804;2023-04-24T06:57:56;93502.81;;;10.22;100.00
21828;BME280;11076;47.942;11.804;2023-04-24T07:02:59;93509.41;;;10.43;99.15
21828;BME280;11076;47.942;11.804;2023-04-24T07:08:02;93511.56;;;10.75;97.96
21828;BME280;11076;47.942;11.804;2023-04-24T07:13:05;93524.81;;;11.32;95.14
21828;BME280;11076;47.942;11.804;2023-04-24T07:18:09;93522.56;;;11.63;92.39
21828;BME280;11076;47.942;11.804;2023-04-24T07:23:11;93524.91;;;11.77;92.12
21828;BME280;11076;47.942;11.804;2023-04-24T07:28:13;93525.16;;;11.92;89.05
21828;BME280;11076;47.942;11.804;2023-04-24T07:33:16;93522.94;;;11.89;84.27
21828;BME280;11076;47.942;11.804;2023-04-24T07:38:18;93525.63;;;11.89;85.14
21828;BME280;11076;47.942;11.804;2023-04-24T07:43:24;93529.50;;;11.98;85.88
21828;BME280;11076;47.942;11.804;2023-04-24T07:48:26;93523.31;;;11.98;84.52
21828;BME280;11076;47.942;11.804;2023-04-24T07:53:29;93530.44;;;12.31;81.17
21828;BME280;11076;47.942;11.804;2023-04-24T07:58:31;93533.09;;;12.80;80.91
21828;BME280;11076;47.942;11.804;2023-04-24T08:03:34;93528.69;;;13.23;79.84
21828;BME280;11076;47.942;11.804;2023-04-24T08:08:36;93538.00;;;13.16;77.37
21828;BME280;11076;47.942;11.804;2023-04-24T08:13:38;93557.09;;;12.21;79.29
21828;BME280;11076;47.942;11.804;2023-04-24T08:18:41;93563.38;;;11.53;81.70
21828;BME280;11076;47.942;11.804;2023-04-24T08:23:43;93562.81;;;11.01;84.74
21828;BME280;11076;47.942;11.804;2023-04-24T08:28:46;93574.06;;;11.03;86.72
21828;BME280;11076;47.942;11.804;2023-04-24T08:33:48;93571.09;;;11.16;86.22
21828;BME280;11076;47.942;11.804;2023-04-24T08:38:53;93583.09;;;11.30;84.95
21828;BME280;11076;47.942;11.804;2023-04-24T08:43:56;93585.38;;;11.39;85.21
21828;BME280;11076;47.942;11.804;2023-04-24T08:49:00;93584.06;;;11.24;85.00
21828;BME280;11076;47.942;11.804;2023-04-24T08:54:03;93595.19;;;10.87;86.54
21828;BME280;11076;47.942;11.804;2023-04-24T08:59:06;93596.00;;;10.88;86.67
21828;BME280;11076;47.942;11.804;2023-04-24T09:04:09;93597.13;;;10.75;87.28
21828;BME280;11076;47.942;11.804;2023-04-24T09:09:17;93604.38;;;10.63;85.43
21828;BME280;11076;47.942;11.804;2023-04-24T09:14:20;93611.50;;;10.74;88.69
21828;BME280;11076;47.942;11.804;2023-04-24T09:19:23;93630.13;;;10.98;86.01
21828;BME280;11076;47.942;11.804;2023-04-24T09:24:25;93625.13;;;11.47;81.10
21828;BME280;11076;47.942;11.804;2023-04-24T09:29:28;93634.03;;;11.69;79.53
21828;BME280;11076;47.942;11.804;2023-04-24T09:34:30;93640.50;;;11.40;78.22
21828;BME280;11076;47.942;11.804;2023-04-24T09:39:33;93632.19;;;12.04;77.10
21828;BME280;11076;47.942;11.804;2023-04-24T09:44:36;93635.34;;;13.11;73.95
21828;BME280;11076;47.942;11.804;2023-04-24T09:49:38;93633.81;;;13.42;70.48
21828;BME280;11076;47.942;11.804;2023-04-24T09:54:41;93615.25;;;14.53;70.68
21828;BME280;11076;47.942;11.804;2023-04-24T09:59:46;93607.19;;;14.05;65.71
21828;BME280;11076;47.942;11.804;2023-04-24T10:04:55;93602.84;;;14.04;66.95
21828;BME280;11076;47.942;11.804;2023-04-24T10:09:59;93606.56;;;13.56;64.16
21828;BME280;11076;47.942;11.804;2023-04-24T10:15:02;93610.66;;;13.68;64.97
21828;BME280;11076;47.942;11.804;2023-04-24T10:20:05;93593.34;;;14.87;64.97
21828;BME280;11076;47.942;11.804;2023-04-24T10:25:09;93593.16;;;15.24;62.83
21828;BME280;11076;47.942;11.804;2023-04-24T10:30:12;93599.66;;;15.44;59.85
21828;BME280;11076;47.942;11.804;2023-04-24T10:35:15;93590.28;;;14.63;59.91
21828;BME280;11076;47.942;11.804;2023-04-24T10:40:26;93593.38;;;14.97;61.92
21828;BME280;11076;47.942;11.804;2023-04-24T10:45:29;93602.00;;;14.41;59.09
21828;BME280;11076;47.942;11.804;2023-04-24T10:50:52;93589.34;;;14.37;61.57
21828;BME280;11076;47.942;11.804;2023-04-24T11:01:06;93588.72;;;14.77;59.73
21828;BME280;11076;47.942;11.804;2023-04-24T11:06:09;93592.28;;;13.50;60.62
21828;BME280;11076;47.942;11.804;2023-04-24T11:11:17;93590.53;;;13.33;62.19
21828;BME280;11076;47.942;11.804;2023-04-24T11:21:27;93605.50;;;11.92;68.75
21828;BME280;11076;47.942;11.804;2023-04-24T11:26:36;93607.88;;;13.53;67.79
21828;BME280;11076;47.942;11.804;2023-04-24T11:31:40;93605.91;;;13.76;67.87
21828;BME280;11076;47.942;11.804;2023-04-24T11:36:47;93617.03;;;13.57;67.67
21828;BME280;11076;47.942;11.804;2023-04-24T11:41:50;93625.19;;;13.67;64.88
21828;BME280;11076;47.942;11.804;2023-04-24T11:46:55;93642.66;;;13.16;66.05
21828;BME280;11076;47.942;11.804;2023-04-24T11:51:59;93662.41;;;12.21;72.83
21828;BME280;11076;47.942;11.804;2023-04-24T11:57:05;93651.59;;;11.94;76.33
21828;BME280;11076;47.942;11.804;2023-04-24T12:02:08;93631.44;;;12.97;72.89
21828;BME280;11076;47.942;11.804;2023-04-24T12:07:11;93622.94;;;13.05;71.20
21828;BME280;11076;47.942;11.804;2023-04-24T12:12:15;93618.31;;;13.82;70.36
21828;BME280;11076;47.942;11.804;2023-04-24T12:17:17;93614.38;;;14.00;65.19
21828;BME280;11076;47.942;11.804;2023-04-24T12:22:25;93609.44;;;13.81;65.33
21828;BME280;11076;47.942;11.804;2023-04-24T12:27:30;93612.44;;;13.85;65.87
21828;BME280;11076;47.942;11.804;2023-04-24T12:32:33;93605.44;;;13.51;66.98
21828;BME280;11076;47.942;11.804;2023-04-24T12:37:36;93640.03;;;12.71;67.71
21828;BME280;11076;47.942;11.804;2023-04-24T12:42:49;93651.56;;;10.86;74.95
21828;BME280;11076;47.942;11.804;2023-04-24T12:47:52;93647.06;;;10.10;77.19
21828;BME280;11076;47.942;11.804;2023-04-24T12:52:54;93641.78;;;10.63;78.35
21828;BME280;11076;47.942;11.804;2023-04-24T12:57:56;93654.59;;;11.18;76.87
21828;BME280;11076;47.942;11.804;2023-04-24T13:03:00;93657.91;;;10.68;76.95
21828;BME280;11076;47.942;11.804;2023-04-24T13:08:03;93657.94;;;10.97;76.88
21828;BME280;11076;47.942;11.804;2023-04-24T13:13:05;93671.06;;;10.58;80.25
21828;BME280;11076;47.942;11.804;2023-04-24T13:18:08;93685.81;;;10.60;78.51
21828;BME280;11076;47.942;11.804;2023-04-24T13:23:10;93681.72;;;10.81;72.66
21828;BME280;11076;47.942;11.804;2023-04-24T13:28:13;93664.56;;;10.94;72.30
21828;BME280;11076;47.942;11.804;2023-04-24T13:33:15;93659.94;;;11.18;70.87
21828;BME280;11076;47.942;11.804;2023-04-24T13:38:18;93667.16;;;12.14;68.80
21828;BME280;11076;47.942;11.804;2023-04-24T13:43:23;93654.13;;;12.84;64.41
21828;BME280;11076;47.942;11.804;2023-04-24T13:48:26;93651.81;;;13.74;63.87
21828;BME280;11076;47.942;11.804;2023-04-24T13:53:28;93645.88;;;13.67;62.20
21828;BME280;11076;47.942;11.804;2023-04-24T13:58:31;93652.13;;;13.23;61.35
21828;BME280;11076;47.942;11.804;2023-04-24T14:03:34;93676.31;;;12.01;66.21
21828;BME280;11076;47.942;11.804;2023-04-24T14:08:36;93675.41;;;10.47;76.16
21828;BME280;11076;47.942;11.804;2023-04-24T14:13:40;93654.50;;;10.08;77.21
21828;BME280;11076;47.942;11.804;2023-04-24T14:18:43;93650.38;;;10.65;76.07
21828;BME280;11076;47.942;11.804;2023-04-24T14:23:46;93644.31;;;11.27;74.29
21828;BME280;11076;47.942;11.804;2023-04-24T14:28:48;93649.09;;;10.96;74.39
21828;BME280;11076;47.942;11.804;2023-04-24T14:33:51;93660.06;;;10.42;78.80
21828;BME280;11076;47.942;11.804;2023-04-24T14:38:53;93671.81;;;9.94;83.55
21828;BME280;11076;47.942;11.804;2023-04-24T14:43:56;93662.97;;;10.52;80.53
21828;BME280;11076;47.942;11.804;2023-04-24T14:48:58;93651.63;;;11.03;77.52
21828;BME280;11076;47.942;11.804;2023-04-24T14:54:01;93653.38;;;11.26;75.34
21828;BME280;11076;47.942;11.804;2023-04-24T14:59:03;93650.75;;;11.77;68.01
21828;BME280;11076;47.942;11.804;2023-04-24T15:04:06;93656.25;;;12.21;67.69
21828;BME280;11076;47.942;11.804;2023-04-24T15:09:08;93666.94;;;12.38;66.39
21828;BME280;11076;47.942;11.804;2023-04-24T15:14:11;93646.13;;;12.45;61.77
21828;BME280;11076;47.942;11.804;2023-04-24T15:19:13;93661.88;;;12.41;60.31
21828;BME280;11076;47.942;11.804;2023-04-24T15:24:15;93672.44;;;12.48;60.45
21828;BME280;11076;47.942;11.804;2023-04-24T15:29:18;93659.78;;;13.09;58.96
21828;BME280;11076;47.942;11.804;2023-04-24T15:34:20;93657.72;;;13.44;57.77
21828;BME280;11076;47.942;11.804;2023-04-24T15:39:23;93656.13;;;13.21;58.13
21828;BME280;11076;47.942;11.804;2023-04-24T15:44:28;93672.25;;;12.54;58.21
21828;BME280;11076;47.942;11.804;2023-04-24T15:49:31;93671.66;;;12.30;59.03
21828;BME280;11076;47.942;11.804;2023-04-24T15:54:33;93661.34;;;12.61;57.18
21828;BME280;11076;47.942;11.804;2023-04-24T15:59:35;93673.88;;;13.00;56.21
21828;BME280;11076;47.942;11.804;2023-04-24T16:04:38;93665.84;;;12.78;54.99
21828;BME280;11076;47.942;11.804;2023-04-24T16:09:40;93668.97;;;12.47;54.45
21828;BME280;11076;47.942;11.804;2023-04-24T16:14:43;93683.56;;;12.18;55.70
21828;BME280;11076;47.942;11.804;2023-04-24T16:19:45;93696.59;;;12.31;57.11
21828;BME280;11076;47.942;11.804;2023-04-24T16:24:48;93688.41;;;12.21;55.13
21828;BME280;11076;47.942;11.804;2023-04-24T16:29:50;93700.91;;;12.32;54.88
21828;BME280;11076;47.942;11.804;2023-04-24T16:34:53;93703.34;;;12.17;56.88
21828;BME280;11076;47.942;11.804;2023-04-24T16:39:55;93688.25;;;11.93;57.16
21828;BME280;11076;47.942;11.804;2023-04-24T16:44:57;93696.84;;;11.79;59.88
21828;BME280;11076;47.942;11.804;2023-04-24T16:50:00;93697.59;;;11.45;61.89
21828;BME280;11076;47.942;11.804;2023-04-24T16:55:02;93696.91;;;11.21;60.22
21828;BME280;11076;47.942;11.804;2023-04-24T17:00:05;93701.41;;;11.04;60.31
21828;BME280;11076;47.942;11.804;2023-04-24T17:05:09;93715.75;;;10.86;59.93
21828;BME280;11076;47.942;11.804;2023-04-24T17:10:12;93709.34;;;10.99;59.72
21828;BME280;11076;47.942;11.804;2023-04-24T17:15:14;93722.25;;;11.30;59.90
21828;BME280;11076;47.942;11.804;2023-04-24T17:20:16;93718.88;;;10.94;59.77
21828;BME280;11076;47.942;11.804;2023-04-24T17:25:22;93732.22;;;10.42;60.33
21828;BME280;11076;47.942;11.804;2023-04-24T17:30:25;93738.78;;;9.92;61.75
21828;BME280;11076;47.942;11.804;2023-04-24T17:35:27;93753.69;;;9.58;61.97
21828;BME280;11076;47.942;11.804;2023-04-24T17:40:30;93753.19;;;9.38;62.76
21828;BME280;11076;47.942;11.804;2023-04-24T17:45:32;93748.03;;;9.24;62.83
21828;BME280;11076;47.942;11.804;2023-04-24T17:50:35;93741.59;;;9.44;63.29
21828;BME280;11076;47.942;11.804;2023-04-24T17:55:38;93752.44;;;9.30;63.58
21828;BME280;11076;47.942;11.804;2023-04-24T18:00:40;93753.88;;;9.14;64.77
21828;BME280;11076;47.942;11.804;2023-04-24T18:05:43;93764.19;;;9.11;65.58
21828;BME280;11076;47.942;11.804;2023-04-24T18:10:45;93770.09;;;9.13;65.70
21828;BME280;11076;47.942;11.804;2023-04-24T18:15:48;93779.78;;;8.95;65.92
21828;BME280;11076;47.942;11.804;2023-04-24T18:20:50;93795.25;;;8.87;66.96
21828;BME280;11076;47.942;11.804;2023-04-24T18:25:53;93790.75;;;8.87;67.28
21828;BME280;11076;47.942;11.804;2023-04-24T18:30:56;93804.94;;;8.81;67.20
21828;BME280;11076;47.942;11.804;2023-04-24T18:35:58;93804.03;;;8.69;67.53
21828;BME280;11076;47.942;11.804;2023-04-24T18:41:01;93818.91;;;8.58;68.46
21828;BME280;11076;47.942;11.804;2023-04-24T18:46:04;93820.19;;;8.55;68.87
21828;BME280;11076;47.942;11.804;2023-04-24T18:51:06;93824.69;;;8.55;69.53
21828;BME280;11076;47.942;11.804;2023-04-24T18:56:09;93831.88;;;8.54;70.02
21828;BME280;11076;47.942;11.804;2023-04-24T19:01:12;93825.06;;;8.59;70.73
21828;BME280;11076;47.942;11.804;2023-04-24T19:06:14;93827.66;;;8.40;71.25
21828;BME280;11076;47.942;11.804;2023-04-24T19:11:17;93840.94;;;8.22;71.28
21828;BME280;11076;47.942;11.804;2023-04-24T19:16:19;93839.72;;;8.17;72.65
21828;BME280;11076;47.942;11.804;2023-04-24T19:21:21;93846.91;;;8.17;73.04
21828;BME280;11076;47.942;11.804;2023-04-24T19:26:24;93848.75;;;8.16;73.66
21828;BME280;11076;47.942;11.804;2023-04-24T19:31:29;93842.78;;;7.96;73.94
21828;BME280;11076;47.942;11.804;2023-04-24T19:36:31;93845.72;;;7.81;75.21
21828;BME280;11076;47.942;11.804;2023-04-24T19:41:35;93837.31;;;7.84;75.78
21828;BME280;11076;47.942;11.804;2023-04-24T19:46:38;93839.72;;;7.92;76.65
21828;BME280;11076;47.942;11.804;2023-04-24T19:51:41;93849.72;;;7.97;76.62
21828;BME280;11076;47.942;11.804;2023-04-24T19:56:43;93857.69;;;7.97;77.03
21828;BME280;11076;47.942;11.804;2023-04-24T20:01:46;93857.38;;;7.87;77.47
21828;BME280;11076;47.942;11.804;2023-04-24T20:06:48;93864.06;;;7.64;79.12
21828;BME280;11076;47.942;11.804;2023-04-24T20:11:50;93864.38;;;7.36;80.38
21828;BME280;11076;47.942;11.804;2023-04-24T20:16:54;93874.09;;;7.17;82.14
21828;BME280;11076;47.942;11.804;2023-04-24T20:21:58;93864.69;;;7.14;83.70
21828;BME280;11076;47.942;11.804;2023-04-24T20:27:00;93872.63;;;7.21;84.06
21828;BME280;11076;47.942;11.804;2023-04-24T20:32:05;93866.91;;;7.24;84.96
21828;BME280;11076;47.942;11.804;2023-04-24T20:37:08;93859.53;;;7.26;84.45
21828;BME280;11076;47.942;11.804;2023-04-24T20:42:10;93851.38;;;7.21;84.52
21828;BME280;11076;47.942;11.804;2023-04-24T20:47:13;93849.63;;;6.95;85.27
21828;BME280;11076;47.942;11.804;2023-04-24T20:52:15;93855.84;;;6.69;85.65
21828;BME280;11076;47.942;11.804;2023-04-24T20:57:18;93854.81;;;6.63;86.14
21828;BME280;11076;47.942;11.804;2023-04-24T21:02:21;93849.72;;;6.62;87.20
21828;BME280;11076;47.942;11.804;2023-04-24T21:07:23;93852.97;;;6.64;86.46
21828;BME280;11076;47.942;11.804;2023-04-24T21:12:26;93839.72;;;6.57;87.24
21828;BME280;11076;47.942;11.804;2023-04-24T21:17:28;93839.94;;;6.42;86.74
21828;BME280;11076;47.942;11.804;2023-04-24T21:22:30;93827.91;;;6.33;87.29
21828;BME280;11076;47.942;11.804;2023-04-24T21:27:33;93831.16;;;6.28;87.79
21828;BME280;11076;47.942;11.804;2023-04-24T21:32:35;93828.75;;;6.27;87.51
21828;BME280;11076;47.942;11.804;2023-04-24T21:37:39;93826.88;;;6.21;87.91
21828;BME280;11076;47.942;11.804;2023-04-24T21:42:42;93829.97;;;6.04;87.80
21828;BME280;11076;47.942;11.804;2023-04-24T21:47:44;93827.69;;;5.88;88.31
21828;BME280;11076;47.942;11.804;2023-04-24T21:52:47;93832.38;;;5.79;89.02
21828;BME280;11076;47.942;11.804;2023-04-24T21:57:49;93819.28;;;5.71;88.92
21828;BME280;11076;47.942;11.804;2023-04-24T22:02:51;93819.91;;;5.66;89.99
21828;BME280;11076;47.942;11.804;2023-04-24T22:07:54;93814.41;;;5.61;91.32
21828;BME280;11076;47.942;11.804;2023-04-24T22:12:57;93812.53;;;5.55;91.56
21828;BME280;11076;47.942;11.804;2023-04-24T22:17:59;93802.75;;;5.42;91.46
21828;BME280;11076;47.942;11.804;2023-04-24T22:23:02;93799.06;;;5.36;91.52
21828;BME280;11076;47.942;11.804;2023-04-24T22:28:05;93804.16;;;5.45;93.40
21828;BME280;11076;47.942;11.804;2023-04-24T22:33:07;93797.25;;;5.57;92.97
21828;BME280;11076;47.942;11.804;2023-04-24T22:38:10;93791.13;;;5.56;93.22
21828;BME280;11076;47.942;11.804;2023-04-24T22:43:12;93792.38;;;5.54;92.97
21828;BME280;11076;47.942;11.804;2023-04-24T22:48:14;93787.69;;;5.49;92.64
21828;BME280;11076;47.942;11.804;2023-04-24T22:53:18;93793.56;;;5.45;92.82
21828;BME280;11076;47.942;11.804;2023-04-24T22:58:20;93787.44;;;5.37;93.77
21828;BME280;11076;47.942;11.804;2023-04-24T23:03:22;93786.63;;;5.44;94.34
21828;BME280;11076;47.942;11.804;2023-04-24T23:08:25;93777.66;;;5.45;93.75
21828;BME280;11076;47.942;11.804;2023-04-24T23:13:27;93774.81;;;5.40;93.44
21828;BME280;11076;47.942;11.804;2023-04-24T23:18:30;93770.13;;;5.42;94.41
21828;BME280;11076;47.942;11.804;2023-04-24T23:23:32;93766.84;;;5.40;93.86
21828;BME280;11076;47.942;11.804;2023-04-24T23:28:35;93759.31;;;5.30;94.96
21828;BME280;11076;47.942;11.804;2023-04-24T23:33:38;93756.03;;;5.28;94.62
21828;BME280;11076;47.942;11.804;2023-04-24T23:38:41;93748.91;;;5.42;95.05
21828;BME280;11076;47.942;11.804;2023-04-24T23:43:48;93747.91;;;5.49;95.33
21828;BME280;11076;47.942;11.804;2023-04-24T23:48:50;93743.41;;;5.43;94.87
21828;BME280;11076;47.942;11.804;2023-04-24T23:53:52;93734.44;;;5.44;94.91
21828;BME280;11076;47.942;11.804;2023-04-24T23:58:55;93740.16;;;5.61;95.20
